createdAt,value
2022-12-14T00:02:08.366Z,8.95
2022-12-14T00:04:41.327Z,8.82
2022-12-14T00:07:14.565Z,8.20
2022-12-14T00:09:47.477Z,8.43
2022-12-14T00:12:20.424Z,8.93
2022-12-14T00:14:53.711Z,8.80
2022-12-14T00:17:28.392Z,8.75
2022-12-14T00:20:01.381Z,8.93
2022-12-14T00:22:34.385Z,8.82
2022-12-14T00:25:08.464Z,9.60
2022-12-14T00:27:44.497Z,9.13
2022-12-14T00:30:20.636Z,9.13
2022-12-14T00:32:55.047Z,9.13
2022-12-14T00:35:28.329Z,9.45
2022-12-14T00:38:01.451Z,9.55
2022-12-14T00:40:34.359Z,10.02
2022-12-14T00:43:07.270Z,11.25
2022-12-14T00:45:40.347Z,11.10
2022-12-14T00:48:16.339Z,10.52
2022-12-14T00:50:50.997Z,9.10
2022-12-14T00:53:24.771Z,9.95
2022-12-14T00:55:58.863Z,10.50
2022-12-14T00:58:32.022Z,10.32
2022-12-14T01:01:07.956Z,10.68
2022-12-14T01:03:42.645Z,11.07
2022-12-14T01:06:17.324Z,9.77
2022-12-14T01:08:50.600Z,9.63
2022-12-14T01:11:23.751Z,11.07
2022-12-14T01:13:57.134Z,9.95
2022-12-14T01:16:30.129Z,10.63
2022-12-14T01:19:05.211Z,10.73
2022-12-14T01:21:38.222Z,10.13
2022-12-14T01:24:11.360Z,10.38
2022-12-14T01:26:44.351Z,10.32
2022-12-14T01:29:17.676Z,11.15
2022-12-14T01:31:50.690Z,10.52
2022-12-14T01:34:25.163Z,10.55
2022-12-14T01:36:58.136Z,10.50
2022-12-14T01:39:31.483Z,10.75
2022-12-14T01:42:04.876Z,11.50
2022-12-14T01:44:57.356Z,11.27
2022-12-14T01:47:38.460Z,10.05
2022-12-14T01:50:21.352Z,11.57
2022-12-14T01:52:58.000Z,10.35
2022-12-14T01:55:35.645Z,11.18
2022-12-14T01:58:12.490Z,12.05
2022-12-14T02:00:45.977Z,11.38
2022-12-14T02:03:23.952Z,10.77
2022-12-14T02:06:02.355Z,11.15
2022-12-14T02:08:35.948Z,10.52
2022-12-14T02:11:08.893Z,10.38
2022-12-14T02:13:43.803Z,11.52
2022-12-14T02:16:21.657Z,10.75
2022-12-14T02:18:54.836Z,9.88
2022-12-14T02:21:45.709Z,10.57
2022-12-14T02:24:44.471Z,10.23
2022-12-14T02:27:38.346Z,10.27
2022-12-14T02:30:16.076Z,10.68
2022-12-14T02:33:14.143Z,10.32
2022-12-14T02:35:51.968Z,10.90
2022-12-14T02:38:43.234Z,10.20
2022-12-14T02:41:23.904Z,11.23
2022-12-14T02:44:06.982Z,11.25
2022-12-14T02:46:50.567Z,12.15
2022-12-14T02:49:35.900Z,11.07
2022-12-14T02:52:15.616Z,10.82
2022-12-14T02:54:55.977Z,10.87
2022-12-14T02:57:31.970Z,10.45
2022-12-14T03:00:08.143Z,10.55
2022-12-14T03:02:44.843Z,10.38
2022-12-14T03:05:18.092Z,11.00
2022-12-14T03:07:54.103Z,10.80
2022-12-14T03:10:36.304Z,10.45
2022-12-14T03:13:16.557Z,11.75
2022-12-14T03:15:56.902Z,10.95
2022-12-14T03:18:37.047Z,10.60
2022-12-14T03:21:13.057Z,9.90
2022-12-14T03:23:48.863Z,10.43
2022-12-14T03:26:27.203Z,10.80
2022-12-14T03:29:06.899Z,10.88
2022-12-14T03:31:49.153Z,11.30
2022-12-14T03:34:29.660Z,10.40
2022-12-14T03:37:10.724Z,11.27
2022-12-14T03:39:47.058Z,11.02
2022-12-14T03:42:24.920Z,10.15
2022-12-14T03:45:06.906Z,11.38
2022-12-14T03:47:55.092Z,10.82
2022-12-14T03:50:35.532Z,10.82
2022-12-14T03:53:16.846Z,11.65
2022-12-14T03:56:00.570Z,10.90
2022-12-14T03:58:39.172Z,12.05
2022-12-14T04:01:18.494Z,12.35
2022-12-14T04:03:57.190Z,10.70
2022-12-14T04:06:39.366Z,11.82
2022-12-14T04:09:23.937Z,12.77
2022-12-14T04:12:20.601Z,12.30
2022-12-14T04:15:24.370Z,11.38
2022-12-14T04:18:17.927Z,11.88
2022-12-14T04:20:55.025Z,9.95
2022-12-14T04:23:51.889Z,11.90
2022-12-14T04:26:31.154Z,11.68
2022-12-14T04:29:25.992Z,10.30
2022-12-14T04:32:05.954Z,11.10
2022-12-14T04:34:42.877Z,10.88
2022-12-14T04:37:20.439Z,10.68
2022-12-14T04:40:00.540Z,11.07
2022-12-14T04:42:37.507Z,12.38
2022-12-14T04:45:15.982Z,12.13
2022-12-14T04:47:59.119Z,12.57
2022-12-14T04:50:36.792Z,12.88
2022-12-14T04:53:13.373Z,12.00
2022-12-14T04:55:53.852Z,12.45
2022-12-14T04:58:29.531Z,11.82
2022-12-14T05:01:19.040Z,11.13
2022-12-14T05:04:00.955Z,11.25
2022-12-14T05:09:18.857Z,10.23
2022-12-14T05:12:01.925Z,10.70
2022-12-14T05:14:41.003Z,11.55
2022-12-14T05:17:15.306Z,12.30
2022-12-14T05:19:49.278Z,12.88
2022-12-14T05:22:22.780Z,12.02
2022-12-14T05:24:56.087Z,13.07
2022-12-14T05:27:30.869Z,13.25
2022-12-14T05:30:04.246Z,12.25
2022-12-14T05:32:37.398Z,12.30
2022-12-14T05:35:13.903Z,13.00
2022-12-14T05:37:49.398Z,12.05
2022-12-14T05:40:22.634Z,13.35
2022-12-14T05:43:06.724Z,12.77
2022-12-14T05:45:39.979Z,13.07
2022-12-14T05:48:12.915Z,14.73
2022-12-14T05:50:45.981Z,14.15
2022-12-14T05:53:18.868Z,14.38
2022-12-14T05:55:53.325Z,15.23
2022-12-14T05:58:27.647Z,15.50
2022-12-14T06:01:02.357Z,13.98
2022-12-14T06:03:36.088Z,14.07
2022-12-14T06:06:11.145Z,14.52
2022-12-14T06:08:46.045Z,13.77
2022-12-14T06:11:21.007Z,13.88
2022-12-14T06:13:55.204Z,13.68
2022-12-14T06:16:28.254Z,13.13
2022-12-14T06:19:02.752Z,13.63
2022-12-14T06:21:37.013Z,12.30
2022-12-14T06:24:12.120Z,13.25
2022-12-14T06:26:45.505Z,12.38
2022-12-14T06:29:21.158Z,13.32
2022-12-14T06:31:54.061Z,13.95
2022-12-14T06:34:28.726Z,13.73
2022-12-14T06:37:02.042Z,13.05
2022-12-14T06:39:35.311Z,14.02
2022-12-14T06:42:08.509Z,12.82
2022-12-14T06:44:43.046Z,13.65
2022-12-14T06:47:16.140Z,12.20
2022-12-14T06:49:51.269Z,13.27
2022-12-14T06:52:26.956Z,12.07
2022-12-14T06:55:00.581Z,13.35
2022-12-14T06:57:33.616Z,13.30
2022-12-14T07:00:12.200Z,13.38
2022-12-14T07:02:45.234Z,13.13
2022-12-14T07:05:18.925Z,12.43
2022-12-14T07:07:52.333Z,11.55
2022-12-14T07:10:25.252Z,13.18
2022-12-14T07:13:01.154Z,12.68
2022-12-14T07:15:35.799Z,14.80
2022-12-14T07:18:09.111Z,14.50
2022-12-14T07:20:42.154Z,14.10
2022-12-14T07:23:15.193Z,13.90
2022-12-14T07:25:49.186Z,13.32
2022-12-14T07:28:22.744Z,14.73
2022-12-14T07:30:58.465Z,15.18
2022-12-14T07:33:31.672Z,14.45
2022-12-14T07:36:07.162Z,14.23
2022-12-14T07:38:42.278Z,13.77
2022-12-14T07:41:22.117Z,15.10
2022-12-14T07:43:57.247Z,14.73
2022-12-14T07:46:33.197Z,14.82
2022-12-14T07:49:06.186Z,15.10
2022-12-14T07:51:42.371Z,14.40
2022-12-14T07:54:16.314Z,15.73
2022-12-14T07:56:50.945Z,13.68
2022-12-14T07:59:23.990Z,14.32
2022-12-14T08:01:58.482Z,13.93
2022-12-14T08:04:31.785Z,14.70
2022-12-14T08:07:07.147Z,15.23
2022-12-14T08:09:40.165Z,15.60
2022-12-14T08:12:16.258Z,16.13
2022-12-14T08:14:49.997Z,15.52
2022-12-14T08:17:24.516Z,15.35
2022-12-14T08:19:57.613Z,14.98
2022-12-14T08:22:30.710Z,16.65
2022-12-14T08:25:03.556Z,16.55
2022-12-14T08:27:36.951Z,15.55
2022-12-14T08:30:11.219Z,16.35
2022-12-14T08:32:45.675Z,16.00
2022-12-14T08:35:18.855Z,15.57
2022-12-14T08:37:53.481Z,15.85
2022-12-14T08:40:26.819Z,16.10
2022-12-14T08:42:59.685Z,16.23
2022-12-14T08:45:33.822Z,16.08
2022-12-14T08:48:08.365Z,15.38
2022-12-14T08:50:41.320Z,15.23
2022-12-14T08:53:14.228Z,16.30
2022-12-14T08:55:47.848Z,15.50
2022-12-14T08:58:20.732Z,15.65
2022-12-14T09:01:01.802Z,14.55
2022-12-14T09:03:36.478Z,14.95
2022-12-14T09:06:11.090Z,15.02
2022-12-14T09:08:44.002Z,14.75
2022-12-14T09:11:19.071Z,16.13
2022-12-14T09:13:54.728Z,16.17
2022-12-14T09:16:28.133Z,14.80
2022-12-14T09:19:02.798Z,16.52
2022-12-14T09:21:35.860Z,17.40
2022-12-14T09:24:09.944Z,16.13
2022-12-14T09:26:43.084Z,16.42
2022-12-14T09:29:22.633Z,17.15
2022-12-14T09:31:56.009Z,16.45
2022-12-14T09:34:30.711Z,17.17
2022-12-14T09:37:07.892Z,16.88
2022-12-14T09:39:41.187Z,17.15
2022-12-14T09:42:30.645Z,15.52
2022-12-14T09:45:15.266Z,15.70
2022-12-14T09:47:57.703Z,16.35
2022-12-14T09:50:32.503Z,14.98
2022-12-14T09:53:09.812Z,15.30
2022-12-14T09:55:46.069Z,15.18
2022-12-14T09:58:22.391Z,15.95
2022-12-14T10:01:05.911Z,15.05
2022-12-14T10:03:53.254Z,14.35
2022-12-14T10:06:38.155Z,14.73
2022-12-14T10:09:22.230Z,14.55
2022-12-14T10:12:05.147Z,14.95
2022-12-14T10:14:58.734Z,12.80
2022-12-14T10:17:44.953Z,11.55
2022-12-14T10:20:25.126Z,11.73
2022-12-14T10:23:03.901Z,11.07
2022-12-14T10:25:40.044Z,12.80
2022-12-14T10:28:18.590Z,12.77
2022-12-14T10:30:58.976Z,11.60
2022-12-14T10:33:33.232Z,10.90
2022-12-14T10:36:18.522Z,11.18
2022-12-14T10:38:59.943Z,10.80
2022-12-14T10:41:49.432Z,11.10
2022-12-14T10:44:31.179Z,10.27
2022-12-14T10:47:12.856Z,12.27
2022-12-14T10:49:55.198Z,12.10
2022-12-14T10:52:36.889Z,12.93
2022-12-14T10:55:19.088Z,15.63
2022-12-14T10:57:52.344Z,14.65
2022-12-14T11:00:26.164Z,16.00
2022-12-14T11:03:01.232Z,16.10
2022-12-14T11:05:40.737Z,16.45
2022-12-14T11:08:40.884Z,15.73
2022-12-14T11:11:20.308Z,14.85
2022-12-14T11:13:57.682Z,14.82
2022-12-14T11:16:38.483Z,13.65
2022-12-14T11:19:18.313Z,14.63
2022-12-14T11:21:52.650Z,11.77
2022-12-14T11:24:28.093Z,11.85
2022-12-14T11:27:06.360Z,10.90
2022-12-14T11:29:41.527Z,9.70
2022-12-14T11:32:23.860Z,8.63
2022-12-14T11:34:59.156Z,8.75
2022-12-14T11:37:33.748Z,7.93
2022-12-14T11:40:09.213Z,6.90
2022-12-14T11:42:49.339Z,7.85
2022-12-14T11:45:37.495Z,7.72
2022-12-14T11:48:24.224Z,7.50
2022-12-14T11:51:12.664Z,7.72
2022-12-14T11:54:02.116Z,7.35
2022-12-14T11:56:39.084Z,7.45
2022-12-14T11:59:18.755Z,7.18
2022-12-14T12:01:52.218Z,8.38
2022-12-14T12:04:25.814Z,7.43
2022-12-14T12:07:04.343Z,8.10
2022-12-14T12:09:43.018Z,8.10
2022-12-14T12:12:21.776Z,8.05
2022-12-14T12:15:00.903Z,7.75
2022-12-14T12:17:44.503Z,8.20
2022-12-14T12:20:29.544Z,8.07
2022-12-14T12:23:11.979Z,7.88
2022-12-14T12:25:49.577Z,8.23
2022-12-14T12:28:28.463Z,8.50
2022-12-14T12:31:10.965Z,8.57
2022-12-14T12:33:48.776Z,8.18
2022-12-14T12:36:24.505Z,8.50
2022-12-14T12:39:05.674Z,7.70
2022-12-14T12:41:51.370Z,8.87
2022-12-14T12:44:36.853Z,7.97
2022-12-14T12:47:31.180Z,8.27
2022-12-14T12:50:15.611Z,9.02
2022-12-14T12:53:02.712Z,8.43
2022-12-14T12:55:42.971Z,9.15
2022-12-14T12:58:34.204Z,10.30
2022-12-14T13:01:20.639Z,9.40
2022-12-14T13:03:58.192Z,9.75
2022-12-14T13:06:33.659Z,10.10
2022-12-14T13:09:16.808Z,10.88
2022-12-14T13:11:50.485Z,10.25
2022-12-14T13:14:31.103Z,10.20
2022-12-14T13:17:08.251Z,9.55
2022-12-14T13:19:51.900Z,10.05
2022-12-14T13:22:29.746Z,9.60
2022-12-14T13:25:08.261Z,9.02
2022-12-14T13:28:01.223Z,10.25
2022-12-14T13:30:49.924Z,9.45
2022-12-14T13:33:51.874Z,9.02
2022-12-14T13:37:21.451Z,8.27
2022-12-14T13:40:34.467Z,8.82
2022-12-14T13:43:22.288Z,8.55
2022-12-14T13:45:56.354Z,8.68
2022-12-14T13:48:35.759Z,8.50
2022-12-14T13:51:11.650Z,8.98
2022-12-14T13:53:50.289Z,8.65
2022-12-14T13:56:33.254Z,9.07
2022-12-14T13:59:20.596Z,9.10
2022-12-14T14:01:58.319Z,7.80
2022-12-14T14:04:32.281Z,9.10
2022-12-14T14:07:39.409Z,8.10
2022-12-14T14:10:30.853Z,8.75
2022-12-14T14:13:44.027Z,9.13
2022-12-14T14:16:29.884Z,9.10
2022-12-14T14:19:14.393Z,9.30
2022-12-14T14:25:09.455Z,8.85
2022-12-14T14:27:50.818Z,9.52
2022-12-14T14:30:29.175Z,9.35
2022-12-14T14:33:43.115Z,9.43
2022-12-14T14:36:09.373Z,8.88
2022-12-14T14:38:42.979Z,9.30
2022-12-14T14:41:25.036Z,9.60
2022-12-14T14:44:01.567Z,8.63
2022-12-14T14:46:39.467Z,8.02
2022-12-14T14:49:23.529Z,8.13
2022-12-14T14:51:56.898Z,7.93
2022-12-14T14:55:15.865Z,7.63
2022-12-14T14:57:57.467Z,7.35
2022-12-14T15:00:31.628Z,6.82
2022-12-14T15:03:08.697Z,7.15
2022-12-14T15:05:45.619Z,7.38
2022-12-14T15:08:22.044Z,7.47
2022-12-14T15:10:56.324Z,8.15
2022-12-14T15:13:34.610Z,8.27
2022-12-14T15:16:22.431Z,7.75
2022-12-14T15:18:56.830Z,7.30
2022-12-14T15:21:30.156Z,7.38
2022-12-14T15:24:03.169Z,7.10
2022-12-14T15:26:36.045Z,7.18
2022-12-14T15:29:18.043Z,6.22
2022-12-14T15:31:59.284Z,6.50
2022-12-14T15:34:34.552Z,6.32
2022-12-14T15:37:07.491Z,6.00
2022-12-14T15:39:43.712Z,6.45
2022-12-14T15:42:18.523Z,6.18
2022-12-14T15:44:52.393Z,5.82
2022-12-14T15:47:28.345Z,5.93
2022-12-14T15:50:23.456Z,6.22
2022-12-14T15:53:00.172Z,6.38
2022-12-14T15:55:36.010Z,6.43
2022-12-14T15:58:12.190Z,6.35
2022-12-14T16:00:48.168Z,7.32
2022-12-14T16:03:29.907Z,7.15
2022-12-14T16:06:06.018Z,7.55
2022-12-14T16:08:44.301Z,7.50
2022-12-14T16:11:24.619Z,7.45
2022-12-14T16:14:01.881Z,8.35
2022-12-14T16:16:34.905Z,7.95
2022-12-14T16:19:26.671Z,8.05
2022-12-14T16:22:19.671Z,7.68
2022-12-14T16:27:38.255Z,6.57
2022-12-14T16:30:21.810Z,6.95
2022-12-14T16:33:08.546Z,7.47
2022-12-14T16:35:41.669Z,8.13
2022-12-14T16:38:17.572Z,8.38
2022-12-14T16:40:55.562Z,8.80
2022-12-14T16:43:32.805Z,8.40
2022-12-14T16:46:18.533Z,8.45
2022-12-14T16:49:25.313Z,8.25
2022-12-14T16:52:08.843Z,8.32
2022-12-14T16:54:44.039Z,8.48
2022-12-14T16:57:24.328Z,8.57
2022-12-14T17:00:01.452Z,8.50
2022-12-14T17:02:36.872Z,9.20
2022-12-14T17:05:17.949Z,9.75
2022-12-14T17:07:52.562Z,10.03
2022-12-14T17:10:27.425Z,10.18
2022-12-14T17:13:01.850Z,10.50
2022-12-14T17:15:36.282Z,10.82
2022-12-14T17:18:12.322Z,10.00
2022-12-14T17:20:47.011Z,10.07
2022-12-14T17:23:20.578Z,10.32
2022-12-14T17:25:55.055Z,10.77
2022-12-14T17:28:30.152Z,11.27
2022-12-14T17:31:04.260Z,11.23
2022-12-14T17:33:38.239Z,10.27
2022-12-14T17:36:11.341Z,10.18
2022-12-14T17:38:44.756Z,9.65
2022-12-14T17:41:26.786Z,9.93
2022-12-14T17:43:59.908Z,9.32
2022-12-14T17:46:33.046Z,8.85
2022-12-14T17:49:07.010Z,9.23
2022-12-14T17:51:42.217Z,8.65
2022-12-14T17:54:18.255Z,8.75
2022-12-14T17:57:24.478Z,8.75
2022-12-14T18:00:11.127Z,8.95
2022-12-14T18:02:46.238Z,8.85
2022-12-14T18:05:26.060Z,10.20
2022-12-14T18:07:59.273Z,9.27
2022-12-14T18:10:32.436Z,9.48
2022-12-14T18:13:07.129Z,9.85
2022-12-14T18:15:43.196Z,10.82
2022-12-14T18:18:16.596Z,10.60
2022-12-14T18:20:52.836Z,11.15
2022-12-14T18:23:27.804Z,10.77
2022-12-14T18:26:02.699Z,11.35
2022-12-14T18:28:37.774Z,10.82
2022-12-14T18:31:20.732Z,10.93
2022-12-14T18:33:54.641Z,11.40
2022-12-14T18:36:27.826Z,10.73
2022-12-14T18:39:01.301Z,11.75
2022-12-14T18:41:34.849Z,10.15
2022-12-14T18:44:11.947Z,10.68
2022-12-14T18:46:49.188Z,10.95
2022-12-14T18:49:23.240Z,10.18
2022-12-14T18:52:00.594Z,11.02
2022-12-14T18:54:33.657Z,10.45
2022-12-14T18:57:07.003Z,11.10
2022-12-14T18:59:46.932Z,10.90
2022-12-14T19:02:19.983Z,10.57
2022-12-14T19:04:55.359Z,11.32
2022-12-14T19:07:35.080Z,11.63
2022-12-14T19:10:08.706Z,11.27
2022-12-14T19:12:48.589Z,11.30
2022-12-14T19:15:25.203Z,10.95
2022-12-14T19:17:58.911Z,10.65
2022-12-14T19:20:31.884Z,10.80
2022-12-14T19:23:05.345Z,10.20
2022-12-14T19:25:38.647Z,9.98
2022-12-14T19:28:30.888Z,10.60
2022-12-14T19:31:07.083Z,9.85
2022-12-14T19:33:41.450Z,11.07
2022-12-14T19:36:14.583Z,11.18
2022-12-14T19:38:49.124Z,11.55
2022-12-14T19:41:23.340Z,10.82
2022-12-14T19:44:04.849Z,11.02
2022-12-14T19:46:41.805Z,10.93
2022-12-14T19:49:16.699Z,10.25
2022-12-14T19:51:50.795Z,10.30
2022-12-14T19:54:24.294Z,10.63
2022-12-14T19:56:58.057Z,10.77
2022-12-14T19:59:31.033Z,10.45
2022-12-14T20:02:05.773Z,10.70
2022-12-14T20:04:39.981Z,12.60
2022-12-14T20:07:18.423Z,11.20
2022-12-14T20:09:51.588Z,11.95
2022-12-14T20:12:25.123Z,11.18
2022-12-14T20:15:00.978Z,11.70
2022-12-14T20:17:54.374Z,11.40
2022-12-14T20:20:32.063Z,10.55
2022-12-14T20:23:05.396Z,11.23
2022-12-14T20:25:41.798Z,10.73
2022-12-14T20:28:14.906Z,10.98
2022-12-14T20:30:49.587Z,11.32
2022-12-14T20:33:29.927Z,10.93
2022-12-14T20:36:08.204Z,10.77
2022-12-14T20:38:43.614Z,10.85
2022-12-14T20:41:20.959Z,11.13
2022-12-14T20:43:56.737Z,11.93
2022-12-14T20:46:41.253Z,11.55
2022-12-14T20:49:22.641Z,11.57
2022-12-14T20:51:58.238Z,10.55
2022-12-14T20:54:31.369Z,10.85
2022-12-14T20:57:06.412Z,11.13
2022-12-14T20:59:39.506Z,10.57
2022-12-14T21:02:20.295Z,11.25
2022-12-14T21:04:59.691Z,10.85
2022-12-14T21:07:33.561Z,10.60
2022-12-14T21:10:07.637Z,10.45
2022-12-14T21:12:42.468Z,9.90
2022-12-14T21:15:15.502Z,11.93
2022-12-14T21:17:50.280Z,10.70
2022-12-14T21:20:25.021Z,10.35
2022-12-14T21:22:57.975Z,11.45
2022-12-14T21:25:30.851Z,10.65
2022-12-14T21:28:08.669Z,10.70
2022-12-14T21:30:41.547Z,10.50
2022-12-14T21:33:14.772Z,10.75
2022-12-14T21:35:49.292Z,11.27
2022-12-14T21:38:22.365Z,11.65
2022-12-14T21:41:25.030Z,12.02
2022-12-14T21:44:00.102Z,11.80
2022-12-14T21:46:33.237Z,10.82
2022-12-14T21:49:06.746Z,10.73
2022-12-14T21:51:41.293Z,11.60
2022-12-14T21:54:15.691Z,10.63
2022-12-14T21:57:16.762Z,11.23
2022-12-14T21:59:49.782Z,10.38
2022-12-14T22:02:25.641Z,10.55
2022-12-14T22:04:58.833Z,10.77
2022-12-14T22:07:35.035Z,11.05
2022-12-14T22:10:08.448Z,10.77
2022-12-14T22:12:41.348Z,10.63
2022-12-14T22:15:17.048Z,10.32
2022-12-14T22:17:50.740Z,9.65
2022-12-14T22:20:24.835Z,8.35
2022-12-14T22:23:00.322Z,8.75
2022-12-14T22:25:34.274Z,8.45
2022-12-14T22:28:08.601Z,8.00
2022-12-14T22:30:44.198Z,7.43
2022-12-14T22:33:17.107Z,6.80
2022-12-14T22:35:50.140Z,6.50
2022-12-14T22:38:24.722Z,6.53
2022-12-14T22:41:03.128Z,6.05
2022-12-14T22:43:37.544Z,6.47
2022-12-14T22:46:12.647Z,6.10
2022-12-14T22:48:47.034Z,6.00
2022-12-14T22:51:20.758Z,6.60
2022-12-14T22:53:55.279Z,6.60
2022-12-14T22:56:33.045Z,5.95
2022-12-14T22:59:08.866Z,6.40
2022-12-14T23:01:42.272Z,7.40
2022-12-14T23:04:15.660Z,6.38
2022-12-14T23:06:48.696Z,6.60
2022-12-14T23:09:40.771Z,7.22
2022-12-14T23:12:31.011Z,7.70
2022-12-14T23:15:21.814Z,7.32
2022-12-14T23:18:13.558Z,8.02
2022-12-14T23:21:03.780Z,8.25
2022-12-14T23:23:56.371Z,8.25
2022-12-14T23:26:48.567Z,8.25
2022-12-14T23:29:39.014Z,8.07
2022-12-14T23:32:29.506Z,7.45
2022-12-14T23:35:19.613Z,7.20
2022-12-14T23:38:10.059Z,7.03
2022-12-14T23:41:00.501Z,6.82
2022-12-14T23:43:52.202Z,7.32
2022-12-14T23:46:42.548Z,7.18
2022-12-14T23:49:32.923Z,7.10
2022-12-14T23:52:23.970Z,6.80
2022-12-14T23:55:14.748Z,6.65
2022-12-14T23:58:05.164Z,6.80
